sensor_id;sensor_type;location;lat;lon;timestamp;pressure;altitude;pressure_sealevel;temperature;humidity
56912;BME280;42800;53.928;27.662;2023-02-19T00:02:02;96593.00;;;2.46;100.00
56912;BME280;42800;53.928;27.662;2023-02-19T00:04:28;96579.69;;;2.26;100.00
56912;BME280;42800;53.928;27.662;2023-02-19T00:06:54;96606.63;;;2.16;100.00
56912;BME280;42800;53.928;27.662;2023-02-19T00:09:20;96672.88;;;2.36;100.00
56912;BME280;42800;53.928;27.662;2023-02-19T00:11:47;96701.66;;;2.18;100.00
56912;BME280;42800;53.928;27.662;2023-02-19T00:14:15;96687.38;;;2.58;100.00
56912;BME280;42800;53.928;27.662;2023-02-19T00:16:41;96653.09;;;2.28;100.00
56912;BME280;42800;53.928;27.662;2023-02-19T00:19:12;96659.47;;;2.47;100.00
56912;BME280;42800;53.928;27.662;2023-02-19T00:21:38;96668.06;;;2.19;100.00
56912;BME280;42800;53.928;27.662;2023-02-19T00:24:06;96682.63;;;2.44;100.00
56912;BME280;42800;53.928;27.662;2023-02-19T00:26:33;96690.81;;;2.51;100.00
56912;BME280;42800;53.928;27.662;2023-02-19T00:28:59;96679.91;;;2.44;100.00
56912;BME280;42800;53.928;27.662;2023-02-19T00:31:27;96686.03;;;2.38;100.00
56912;BME280;42800;53.928;27.662;2023-02-19T00:33:55;96708.84;;;2.40;100.00
56912;BME280;42800;53.928;27.662;2023-02-19T00:36:23;96699.47;;;2.30;100.00
56912;BME280;42800;53.928;27.662;2023-02-19T00:38:50;96717.75;;;2.41;100.00
56912;BME280;42800;53.928;27.662;2023-02-19T00:41:18;96716.97;;;2.40;100.00
56912;BME280;42800;53.928;27.662;2023-02-19T00:43:46;96741.09;;;2.22;100.00
56912;BME280;42800;53.928;27.662;2023-02-19T00:46:13;96771.13;;;2.47;100.00
56912;BME280;42800;53.928;27.662;2023-02-19T00:48:40;96762.41;;;2.27;100.00
56912;BME280;42800;53.928;27.662;2023-02-19T00:51:06;96770.97;;;2.36;100.00
56912;BME280;42800;53.928;27.662;2023-02-19T00:53:33;96777.31;;;2.48;100.00
56912;BME280;42800;53.928;27.662;2023-02-19T00:55:59;96736.44;;;2.56;100.00
56912;BME280;42800;53.928;27.662;2023-02-19T00:58:25;96727.16;;;2.54;100.00
56912;BME280;42800;53.928;27.662;2023-02-19T01:00:52;96772.00;;;2.58;100.00
56912;BME280;42800;53.928;27.662;2023-02-19T01:03:18;96743.56;;;2.34;100.00
56912;BME280;42800;53.928;27.662;2023-02-19T01:05:47;96745.91;;;2.06;100.00
56912;BME280;42800;53.928;27.662;2023-02-19T01:08:13;96778.72;;;2.04;100.00
56912;BME280;42800;53.928;27.662;2023-02-19T01:10:40;96801.56;;;1.80;100.00
56912;BME280;42800;53.928;27.662;2023-02-19T01:13:06;96880.16;;;1.98;100.00
56912;BME280;42800;53.928;27.662;2023-02-19T01:15:33;96874.38;;;1.47;100.00
56912;BME280;42800;53.928;27.662;2023-02-19T01:17:59;96938.38;;;1.69;100.00
56912;BME280;42800;53.928;27.662;2023-02-19T01:20:26;96951.38;;;1.86;100.00
56912;BME280;42800;53.928;27.662;2023-02-19T01:22:52;96933.34;;;1.45;100.00
56912;BME280;42800;53.928;27.662;2023-02-19T01:25:19;96992.66;;;1.83;100.00
56912;BME280;42800;53.928;27.662;2023-02-19T01:27:46;96986.66;;;1.71;100.00
56912;BME280;42800;53.928;27.662;2023-02-19T01:30:12;96948.56;;;1.79;100.00
56912;BME280;42800;53.928;27.662;2023-02-19T01:32:39;96927.16;;;1.90;100.00
56912;BME280;42800;53.928;27.662;2023-02-19T01:35:05;96914.97;;;1.77;100.00
56912;BME280;42800;53.928;27.662;2023-02-19T01:37:32;96970.69;;;1.85;100.00
56912;BME280;42800;53.928;27.662;2023-02-19T01:39:58;96980.88;;;1.95;100.00
56912;BME280;42800;53.928;27.662;2023-02-19T01:42:24;96920.84;;;2.09;100.00
56912;BME280;42800;53.928;27.662;2023-02-19T01:45:26;96886.56;;;2.13;100.00
56912;BME280;42800;53.928;27.662;2023-02-19T01:48:11;96873.03;;;2.13;100.00
56912;BME280;42800;53.928;27.662;2023-02-19T01:50:46;96848.41;;;2.18;100.00
56912;BME280;42800;53.928;27.662;2023-02-19T01:53:17;96824.09;;;2.52;100.00
56912;BME280;42800;53.928;27.662;2023-02-19T01:55:45;96761.94;;;2.22;100.00
56912;BME280;42800;53.928;27.662;2023-02-19T01:58:13;96746.41;;;2.15;100.00
56912;BME280;42800;53.928;27.662;2023-02-19T02:00:41;96785.53;;;2.25;100.00
56912;BME280;42800;53.928;27.662;2023-02-19T02:03:07;96779.03;;;2.29;100.00
56912;BME280;42800;53.928;27.662;2023-02-19T02:05:45;96763.38;;;2.46;100.00
56912;BME280;42800;53.928;27.662;2023-02-19T02:08:14;96730.09;;;2.42;100.00
56912;BME280;42800;53.928;27.662;2023-02-19T02:10:59;96738.31;;;2.15;100.00
56912;BME280;42800;53.928;27.662;2023-02-19T02:13:26;96774.22;;;1.85;100.00
56912;BME280;42800;53.928;27.662;2023-02-19T02:16:02;96833.72;;;2.19;100.00
56912;BME280;42800;53.928;27.662;2023-02-19T02:18:39;96867.28;;;2.15;100.00
56912;BME280;42800;53.928;27.662;2023-02-19T02:21:42;96850.09;;;2.30;100.00
56912;BME280;42800;53.928;27.662;2023-02-19T02:24:55;96816.22;;;2.40;100.00
56912;BME280;42800;53.928;27.662;2023-02-19T02:27:40;96793.28;;;2.26;100.00
56912;BME280;42800;53.928;27.662;2023-02-19T02:30:17;96854.53;;;2.15;100.00
56912;BME280;42800;53.928;27.662;2023-02-19T02:32:53;96894.84;;;2.24;100.00
56912;BME280;42800;53.928;27.662;2023-02-19T02:35:23;96889.88;;;2.03;100.00
56912;BME280;42800;53.928;27.662;2023-02-19T02:37:52;96913.28;;;2.18;100.00
56912;BME280;42800;53.928;27.662;2023-02-19T02:40:20;96917.22;;;2.24;100.00
56912;BME280;42800;53.928;27.662;2023-02-19T02:42:47;96911.81;;;2.24;100.00
56912;BME280;42800;53.928;27.662;2023-02-19T02:45:29;96904.41;;;2.48;100.00
56912;BME280;42800;53.928;27.662;2023-02-19T02:48:06;96893.78;;;2.32;100.00
56912;BME280;42800;53.928;27.662;2023-02-19T02:50:36;96931.56;;;2.02;100.00
56912;BME280;42800;53.928;27.662;2023-02-19T02:53:10;96928.66;;;2.14;100.00
56912;BME280;42800;53.928;27.662;2023-02-19T02:55:56;96947.13;;;2.08;100.00
56912;BME280;42800;53.928;27.662;2023-02-19T02:58:25;96967.72;;;2.17;100.00
56912;BME280;42800;53.928;27.662;2023-02-19T03:00:56;96884.41;;;2.26;100.00
56912;BME280;42800;53.928;27.662;2023-02-19T03:03:43;96854.88;;;2.10;100.00
56912;BME280;42800;53.928;27.662;2023-02-19T03:06:12;96838.78;;;2.21;100.00
56912;BME280;42800;53.928;27.662;2023-02-19T03:08:44;96801.13;;;2.05;100.00
56912;BME280;42800;53.928;27.662;2023-02-19T03:11:13;96829.47;;;2.18;100.00
56912;BME280;42800;53.928;27.662;2023-02-19T03:13:58;96819.13;;;2.24;100.00
56912;BME280;42800;53.928;27.662;2023-02-19T03:16:47;96840.13;;;2.34;100.00
56912;BME280;42800;53.928;27.662;2023-02-19T03:19:39;96875.34;;;2.11;100.00
56912;BME280;42800;53.928;27.662;2023-02-19T03:22:10;96904.53;;;2.02;100.00
56912;BME280;42800;53.928;27.662;2023-02-19T03:24:42;96902.22;;;2.27;100.00
56912;BME280;42800;53.928;27.662;2023-02-19T03:27:30;96920.97;;;2.16;100.00
56912;BME280;42800;53.928;27.662;2023-02-19T03:30:02;96893.00;;;2.31;100.00
56912;BME280;42800;53.928;27.662;2023-02-19T03:32:34;96891.66;;;2.18;100.00
56912;BME280;42800;53.928;27.662;2023-02-19T03:35:05;96901.84;;;2.02;100.00
56912;BME280;42800;53.928;27.662;2023-02-19T03:37:37;96922.88;;;1.89;100.00
56912;BME280;42800;53.928;27.662;2023-02-19T03:40:07;96970.63;;;1.81;100.00
56912;BME280;42800;53.928;27.662;2023-02-19T03:42:38;97047.25;;;1.73;100.00
56912;BME280;42800;53.928;27.662;2023-02-19T03:45:43;97057.19;;;1.88;100.00
56912;BME280;42800;53.928;27.662;2023-02-19T03:48:27;97116.81;;;1.57;100.00
56912;BME280;42800;53.928;27.662;2023-02-19T03:51:03;97192.47;;;1.41;100.00
56912;BME280;42800;53.928;27.662;2023-02-19T03:53:34;97200.91;;;1.39;100.00
56912;BME280;42800;53.928;27.662;2023-02-19T03:56:07;97245.34;;;1.26;100.00
56912;BME280;42800;53.928;27.662;2023-02-19T03:58:41;97304.06;;;1.13;100.00
56912;BME280;42800;53.928;27.662;2023-02-19T04:01:13;97359.13;;;0.97;100.00
56912;BME280;42800;53.928;27.662;2023-02-19T04:03:44;97433.63;;;1.13;100.00
56912;BME280;42800;53.928;27.662;2023-02-19T04:06:15;97469.97;;;1.04;100.00
56912;BME280;42800;53.928;27.662;2023-02-19T04:08:46;97449.50;;;1.03;100.00
56912;BME280;42800;53.928;27.662;2023-02-19T04:11:15;97441.44;;;0.62;100.00
56912;BME280;42800;53.928;27.662;2023-02-19T04:13:46;97541.88;;;0.84;100.00
56912;BME280;42800;53.928;27.662;2023-02-19T04:16:19;97555.47;;;0.87;100.00
56912;BME280;42800;53.928;27.662;2023-02-19T04:18:50;97551.06;;;0.83;100.00
56912;BME280;42800;53.928;27.662;2023-02-19T04:21:18;97594.69;;;0.97;100.00
56912;BME280;42800;53.928;27.662;2023-02-19T04:23:45;97588.16;;;0.86;100.00
56912;BME280;42800;53.928;27.662;2023-02-19T04:26:12;97588.41;;;0.68;100.00
56912;BME280;42800;53.928;27.662;2023-02-19T04:28:40;97660.22;;;0.85;100.00
56912;BME280;42800;53.928;27.662;2023-02-19T04:31:08;97649.75;;;0.47;100.00
56912;BME280;42800;53.928;27.662;2023-02-19T04:33:35;97671.09;;;0.52;100.00
56912;BME280;42800;53.928;27.662;2023-02-19T04:36:02;97713.03;;;0.62;100.00
56912;BME280;42800;53.928;27.662;2023-02-19T04:38:28;97694.59;;;0.76;100.00
56912;BME280;42800;53.928;27.662;2023-02-19T04:40:54;97656.16;;;0.79;100.00
56912;BME280;42800;53.928;27.662;2023-02-19T04:43:21;97624.91;;;0.66;100.00
56912;BME280;42800;53.928;27.662;2023-02-19T04:45:47;97627.75;;;0.57;100.00
56912;BME280;42800;53.928;27.662;2023-02-19T04:48:13;97660.75;;;0.66;100.00
56912;BME280;42800;53.928;27.662;2023-02-19T04:50:39;97633.38;;;0.64;100.00
56912;BME280;42800;53.928;27.662;2023-02-19T04:53:07;97631.31;;;0.49;100.00
56912;BME280;42800;53.928;27.662;2023-02-19T04:55:36;97688.78;;;0.74;100.00
56912;BME280;42800;53.928;27.662;2023-02-19T04:58:02;97704.94;;;0.86;100.00
56912;BME280;42800;53.928;27.662;2023-02-19T05:00:28;97683.84;;;1.01;100.00
56912;BME280;42800;53.928;27.662;2023-02-19T05:02:55;97687.63;;;1.00;100.00
56912;BME280;42800;53.928;27.662;2023-02-19T05:05:21;97671.34;;;1.08;100.00
56912;BME280;42800;53.928;27.662;2023-02-19T05:07:47;97634.69;;;1.07;100.00
56912;BME280;42800;53.928;27.662;2023-02-19T05:10:15;97612.25;;;1.31;100.00
56912;BME280;42800;53.928;27.662;2023-02-19T05:12:41;97598.63;;;1.40;100.00
56912;BME280;42800;53.928;27.662;2023-02-19T05:15:07;97578.72;;;1.32;100.00
56912;BME280;42800;53.928;27.662;2023-02-19T05:17:33;97513.16;;;1.32;100.00
56912;BME280;42800;53.928;27.662;2023-02-19T05:20:00;97508.78;;;1.27;100.00
56912;BME280;42800;53.928;27.662;2023-02-19T05:22:27;97542.63;;;1.37;100.00
56912;BME280;42800;53.928;27.662;2023-02-19T05:24:54;97479.88;;;1.28;100.00
56912;BME280;42800;53.928;27.662;2023-02-19T05:27:21;97469.16;;;1.31;100.00
56912;BME280;42800;53.928;27.662;2023-02-19T05:29:47;97441.06;;;1.04;100.00
56912;BME280;42800;53.928;27.662;2023-02-19T05:32:14;97452.47;;;1.41;100.00
56912;BME280;42800;53.928;27.662;2023-02-19T05:34:40;97416.66;;;1.45;100.00
56912;BME280;42800;53.928;27.662;2023-02-19T05:37:06;97375.03;;;1.46;100.00
56912;BME280;42800;53.928;27.662;2023-02-19T05:39:32;97351.41;;;1.74;100.00
56912;BME280;42800;53.928;27.662;2023-02-19T05:41:59;97292.09;;;1.46;100.00
56912;BME280;42800;53.928;27.662;2023-02-19T05:44:26;97280.31;;;1.70;100.00
56912;BME280;42800;53.928;27.662;2023-02-19T05:46:52;97230.88;;;1.50;100.00
56912;BME280;42800;53.928;27.662;2023-02-19T05:49:18;97300.78;;;1.71;100.00
56912;BME280;42800;53.928;27.662;2023-02-19T05:51:44;97249.00;;;1.69;100.00
56912;BME280;42800;53.928;27.662;2023-02-19T05:54:11;97203.53;;;1.91;100.00
56912;BME280;42800;53.928;27.662;2023-02-19T05:56:38;97182.44;;;1.77;100.00
56912;BME280;42800;53.928;27.662;2023-02-19T05:59:05;97128.66;;;1.91;100.00
56912;BME280;42800;53.928;27.662;2023-02-19T06:01:34;97052.78;;;1.57;100.00
56912;BME280;42800;53.928;27.662;2023-02-19T06:04:00;97110.66;;;1.99;100.00
56912;BME280;42800;53.928;27.662;2023-02-19T06:06:26;97099.47;;;1.77;100.00
56912;BME280;42800;53.928;27.662;2023-02-19T06:08:55;97098.47;;;1.47;100.00
56912;BME280;42800;53.928;27.662;2023-02-19T06:11:23;97109.38;;;1.73;100.00
56912;BME280;42800;53.928;27.662;2023-02-19T06:13:49;97114.59;;;1.82;100.00
56912;BME280;42800;53.928;27.662;2023-02-19T06:16:16;97046.75;;;1.87;100.00
56912;BME280;42800;53.928;27.662;2023-02-19T06:18:43;97129.38;;;1.69;100.00
56912;BME280;42800;53.928;27.662;2023-02-19T06:21:10;97111.16;;;1.85;100.00
56912;BME280;42800;53.928;27.662;2023-02-19T06:23:38;97094.53;;;1.83;100.00
56912;BME280;42800;53.928;27.662;2023-02-19T06:26:06;97079.38;;;1.98;100.00
56912;BME280;42800;53.928;27.662;2023-02-19T06:28:33;97063.97;;;1.79;100.00
56912;BME280;42800;53.928;27.662;2023-02-19T06:30:59;97065.94;;;1.82;100.00
56912;BME280;42800;53.928;27.662;2023-02-19T06:33:25;97044.28;;;1.78;100.00
56912;BME280;42800;53.928;27.662;2023-02-19T06:35:53;97046.88;;;1.94;100.00
56912;BME280;42800;53.928;27.662;2023-02-19T06:38:20;97029.53;;;2.18;100.00
56912;BME280;42800;53.928;27.662;2023-02-19T06:40:46;96997.63;;;1.81;100.00
56912;BME280;42800;53.928;27.662;2023-02-19T06:43:12;97012.88;;;2.16;100.00
56912;BME280;42800;53.928;27.662;2023-02-19T06:45:39;96950.19;;;2.07;100.00
56912;BME280;42800;53.928;27.662;2023-02-19T06:48:05;96930.03;;;2.27;100.00
56912;BME280;42800;53.928;27.662;2023-02-19T06:50:31;96910.13;;;2.43;100.00
56912;BME280;42800;53.928;27.662;2023-02-19T06:52:58;96895.16;;;2.49;100.00
56912;BME280;42800;53.928;27.662;2023-02-19T06:55:24;96860.16;;;2.33;100.00
56912;BME280;42800;53.928;27.662;2023-02-19T06:57:51;96848.53;;;2.59;100.00
56912;BME280;42800;53.928;27.662;2023-02-19T07:00:17;96830.00;;;2.61;100.00
56912;BME280;42800;53.928;27.662;2023-02-19T07:02:43;96796.94;;;2.78;100.00
56912;BME280;42800;53.928;27.662;2023-02-19T07:05:10;96805.47;;;2.80;100.00
56912;BME280;42800;53.928;27.662;2023-02-19T07:07:36;96780.03;;;2.89;100.00
56912;BME280;42800;53.928;27.662;2023-02-19T07:10:06;96751.88;;;2.93;100.00
56912;BME280;42800;53.928;27.662;2023-02-19T07:12:32;96742.00;;;2.71;100.00
56912;BME280;42800;53.928;27.662;2023-02-19T07:14:58;96727.47;;;2.49;100.00
56912;BME280;42800;53.928;27.662;2023-02-19T07:17:27;96746.00;;;2.84;100.00
56912;BME280;42800;53.928;27.662;2023-02-19T07:19:53;96745.91;;;2.73;100.00
56912;BME280;42800;53.928;27.662;2023-02-19T07:22:20;96760.13;;;2.67;100.00
56912;BME280;42800;53.928;27.662;2023-02-19T07:24:46;96772.03;;;3.03;100.00
56912;BME280;42800;53.928;27.662;2023-02-19T07:27:13;96743.63;;;2.82;100.00
56912;BME280;42800;53.928;27.662;2023-02-19T07:29:41;96729.19;;;3.09;100.00
56912;BME280;42800;53.928;27.662;2023-02-19T07:32:08;96705.59;;;3.13;100.00
56912;BME280;42800;53.928;27.662;2023-02-19T07:34:34;96675.09;;;3.19;100.00
56912;BME280;42800;53.928;27.662;2023-02-19T07:37:00;96667.00;;;3.23;100.00
56912;BME280;42800;53.928;27.662;2023-02-19T07:39:26;96659.28;;;3.21;100.00
56912;BME280;42800;53.928;27.662;2023-02-19T07:41:53;96655.72;;;3.10;100.00
56912;BME280;42800;53.928;27.662;2023-02-19T07:44:20;96638.84;;;4.40;100.00
56912;BME280;42800;53.928;27.662;2023-02-19T07:46:46;96661.31;;;5.15;100.00
56912;BME280;42800;53.928;27.662;2023-02-19T07:49:12;96719.13;;;5.23;100.00
56912;BME280;42800;53.928;27.662;2023-02-19T07:51:38;96773.06;;;5.60;100.00
56912;BME280;42800;53.928;27.662;2023-02-19T07:54:05;96848.19;;;6.71;100.00
56912;BME280;42800;53.928;27.662;2023-02-19T07:56:33;96976.13;;;6.85;100.00
56912;BME280;42800;53.928;27.662;2023-02-19T07:59:00;97082.75;;;6.44;100.00
56912;BME280;42800;53.928;27.662;2023-02-19T08:01:27;97087.00;;;6.99;100.00
56912;BME280;42800;53.928;27.662;2023-02-19T08:04:08;97097.94;;;6.63;100.00
56912;BME280;42800;53.928;27.662;2023-02-19T08:06:34;97119.31;;;6.68;100.00
56912;BME280;42800;53.928;27.662;2023-02-19T08:09:00;97140.16;;;6.00;100.00
56912;BME280;42800;53.928;27.662;2023-02-19T08:11:26;97108.41;;;5.34;100.00
56912;BME280;42800;53.928;27.662;2023-02-19T08:14:11;97078.03;;;6.05;100.00
56912;BME280;42800;53.928;27.662;2023-02-19T08:16:37;97093.63;;;6.62;100.00
56912;BME280;42800;53.928;27.662;2023-02-19T08:19:04;97132.34;;;5.91;100.00
56912;BME280;42800;53.928;27.662;2023-02-19T08:21:36;97136.00;;;6.45;100.00
56912;BME280;42800;53.928;27.662;2023-02-19T08:24:02;97135.13;;;5.98;100.00
56912;BME280;42800;53.928;27.662;2023-02-19T08:26:31;97126.88;;;5.73;100.00
56912;BME280;42800;53.928;27.662;2023-02-19T08:28:58;97075.72;;;5.16;100.00
56912;BME280;42800;53.928;27.662;2023-02-19T08:31:24;97103.94;;;5.78;100.00
56912;BME280;42800;53.928;27.662;2023-02-19T08:33:52;97082.34;;;6.24;100.00
56912;BME280;42800;53.928;27.662;2023-02-19T08:36:18;97156.97;;;6.27;100.00
56912;BME280;42800;53.928;27.662;2023-02-19T08:38:46;97206.50;;;7.00;100.00
56912;BME280;42800;53.928;27.662;2023-02-19T08:41:13;97230.94;;;6.65;100.00
56912;BME280;42800;53.928;27.662;2023-02-19T08:43:42;97234.88;;;6.89;100.00
56912;BME280;42800;53.928;27.662;2023-02-19T08:46:12;97226.72;;;7.10;100.00
56912;BME280;42800;53.928;27.662;2023-02-19T08:48:40;97266.03;;;7.63;100.00
56912;BME280;42800;53.928;27.662;2023-02-19T08:51:12;97286.22;;;8.12;100.00
56912;BME280;42800;53.928;27.662;2023-02-19T08:53:39;97307.34;;;7.65;95.96
56912;BME280;42800;53.928;27.662;2023-02-19T08:56:07;97307.59;;;8.35;95.42
56912;BME280;42800;53.928;27.662;2023-02-19T08:58:33;97324.78;;;8.28;93.15
56912;BME280;42800;53.928;27.662;2023-02-19T09:01:00;97327.97;;;7.48;94.00
56912;BME280;42800;53.928;27.662;2023-02-19T09:03:29;97314.72;;;7.43;100.00
56912;BME280;42800;53.928;27.662;2023-02-19T09:05:58;97313.16;;;7.49;100.00
56912;BME280;42800;53.928;27.662;2023-02-19T09:08:27;97321.69;;;8.12;95.89
56912;BME280;42800;53.928;27.662;2023-02-19T09:10:57;97324.38;;;8.47;91.81
56912;BME280;42800;53.928;27.662;2023-02-19T09:13:24;97325.16;;;8.34;92.56
56912;BME280;42800;53.928;27.662;2023-02-19T09:15:50;97323.19;;;8.45;93.63
56912;BME280;42800;53.928;27.662;2023-02-19T09:18:16;97332.72;;;9.03;83.92
56912;BME280;42800;53.928;27.662;2023-02-19T09:20:42;97332.94;;;8.42;82.06
56912;BME280;42800;53.928;27.662;2023-02-19T09:23:09;97340.75;;;8.37;88.82
56912;BME280;42800;53.928;27.662;2023-02-19T09:25:36;97339.25;;;7.89;87.37
56912;BME280;42800;53.928;27.662;2023-02-19T09:28:04;97317.47;;;7.75;92.73
56912;BME280;42800;53.928;27.662;2023-02-19T09:30:30;97319.28;;;6.78;99.96
56912;BME280;42800;53.928;27.662;2023-02-19T09:32:56;97313.16;;;7.42;100.00
56912;BME280;42800;53.928;27.662;2023-02-19T09:35:23;97311.22;;;7.35;100.00
56912;BME280;42800;53.928;27.662;2023-02-19T09:37:49;97296.69;;;6.63;100.00
56912;BME280;42800;53.928;27.662;2023-02-19T09:40:16;97295.38;;;5.70;100.00
56912;BME280;42800;53.928;27.662;2023-02-19T09:42:47;97270.28;;;4.91;100.00
56912;BME280;42800;53.928;27.662;2023-02-19T09:45:18;97287.81;;;4.97;100.00
56912;BME280;42800;53.928;27.662;2023-02-19T09:47:52;97288.00;;;4.78;100.00
56912;BME280;42800;53.928;27.662;2023-02-19T09:50:23;97283.97;;;4.64;100.00
56912;BME280;42800;53.928;27.662;2023-02-19T09:52:54;97270.50;;;4.38;100.00
56912;BME280;42800;53.928;27.662;2023-02-19T09:55:29;97245.03;;;4.83;100.00
56912;BME280;42800;53.928;27.662;2023-02-19T09:57:58;97257.53;;;5.43;100.00
56912;BME280;42800;53.928;27.662;2023-02-19T10:00:27;97275.06;;;6.08;100.00
56912;BME280;42800;53.928;27.662;2023-02-19T10:03:01;97308.66;;;6.41;100.00
56912;BME280;42800;53.928;27.662;2023-02-19T10:05:29;97320.06;;;6.78;100.00
56912;BME280;42800;53.928;27.662;2023-02-19T10:08:14;97320.25;;;6.23;100.00
56912;BME280;42800;53.928;27.662;2023-02-19T10:10:43;97305.16;;;5.78;100.00
56912;BME280;42800;53.928;27.662;2023-02-19T10:13:21;97314.81;;;5.72;100.00
56912;BME280;42800;53.928;27.662;2023-02-19T10:15:53;97317.63;;;5.82;100.00
56912;BME280;42800;53.928;27.662;2023-02-19T10:18:23;97308.22;;;5.73;100.00
56912;BME280;42800;53.928;27.662;2023-02-19T10:20:53;97309.66;;;5.56;100.00
56912;BME280;42800;53.928;27.662;2023-02-19T10:23:20;97309.84;;;5.33;100.00
56912;BME280;42800;53.928;27.662;2023-02-19T10:25:54;97316.59;;;5.05;100.00
56912;BME280;42800;53.928;27.662;2023-02-19T10:28:25;97330.47;;;5.37;97.51
56912;BME280;42800;53.928;27.662;2023-02-19T10:31:00;97328.94;;;5.88;97.95
56912;BME280;42800;53.928;27.662;2023-02-19T10:33:29;97318.91;;;5.96;100.00
56912;BME280;42800;53.928;27.662;2023-02-19T10:35:59;97310.31;;;5.90;100.00
56912;BME280;42800;53.928;27.662;2023-02-19T10:38:33;97316.72;;;6.26;100.00
56912;BME280;42800;53.928;27.662;2023-02-19T10:41:03;97323.59;;;6.02;94.30
56912;BME280;42800;53.928;27.662;2023-02-19T10:43:36;97338.06;;;6.13;88.50
56912;BME280;42800;53.928;27.662;2023-02-19T10:46:06;97333.16;;;6.41;86.79
56912;BME280;42800;53.928;27.662;2023-02-19T10:48:44;97330.66;;;6.10;93.10
56912;BME280;42800;53.928;27.662;2023-02-19T10:51:12;97319.59;;;6.51;93.26
56912;BME280;42800;53.928;27.662;2023-02-19T10:53:52;97335.28;;;6.94;88.55
56912;BME280;42800;53.928;27.662;2023-02-19T10:56:28;97338.31;;;6.64;87.28
56912;BME280;42800;53.928;27.662;2023-02-19T10:59:14;97334.28;;;6.40;84.41
56912;BME280;42800;53.928;27.662;2023-02-19T11:01:52;97335.47;;;5.80;90.66
56912;BME280;42800;53.928;27.662;2023-02-19T11:04:25;97341.16;;;6.16;93.31
56912;BME280;42800;53.928;27.662;2023-02-19T11:06:54;97345.13;;;6.25;89.19
56912;BME280;42800;53.928;27.662;2023-02-19T11:09:25;97339.50;;;6.73;87.61
56912;BME280;42800;53.928;27.662;2023-02-19T11:11:54;97343.84;;;6.99;86.94
56912;BME280;42800;53.928;27.662;2023-02-19T11:14:24;97343.84;;;6.96;83.50
56912;BME280;42800;53.928;27.662;2023-02-19T11:16:52;97350.47;;;6.07;87.82
56912;BME280;42800;53.928;27.662;2023-02-19T11:19:34;97343.31;;;5.92;92.78
56912;BME280;42800;53.928;27.662;2023-02-19T11:22:17;97336.97;;;5.70;95.10
56912;BME280;42800;53.928;27.662;2023-02-19T11:24:47;97336.41;;;5.50;97.27
56912;BME280;42800;53.928;27.662;2023-02-19T11:27:17;97321.28;;;5.53;99.31
56912;BME280;42800;53.928;27.662;2023-02-19T11:29:48;97327.22;;;5.21;100.00
56912;BME280;42800;53.928;27.662;2023-02-19T11:32:24;97317.56;;;4.86;100.00
56912;BME280;42800;53.928;27.662;2023-02-19T11:35:18;97316.53;;;5.42;100.00
56912;BME280;42800;53.928;27.662;2023-02-19T11:37:54;97317.59;;;5.79;100.00
56912;BME280;42800;53.928;27.662;2023-02-19T11:40:33;97315.13;;;5.59;100.00
56912;BME280;42800;53.928;27.662;2023-02-19T11:43:07;97315.75;;;5.42;99.21
56912;BME280;42800;53.928;27.662;2023-02-19T11:45:43;97311.34;;;5.23;99.75
56912;BME280;42800;53.928;27.662;2023-02-19T11:48:24;97297.69;;;4.79;100.00
56912;BME280;42800;53.928;27.662;2023-02-19T11:51:07;97298.94;;;4.51;100.00
56912;BME280;42800;53.928;27.662;2023-02-19T11:53:44;97300.88;;;4.51;100.00
56912;BME280;42800;53.928;27.662;2023-02-19T11:56:15;97299.88;;;4.32;100.00
56912;BME280;42800;53.928;27.662;2023-02-19T11:58:54;97302.72;;;4.43;100.00
56912;BME280;42800;53.928;27.662;2023-02-19T12:07:16;97275.13;;;4.34;100.00
56912;BME280;42800;53.928;27.662;2023-02-19T12:09:54;97278.31;;;4.43;100.00
56912;BME280;42800;53.928;27.662;2023-02-19T12:12:37;97275.03;;;4.27;100.00
56912;BME280;42800;53.928;27.662;2023-02-19T12:15:27;97291.34;;;4.30;100.00
56912;BME280;42800;53.928;27.662;2023-02-19T12:18:13;97314.72;;;4.42;100.00
56912;BME280;42800;53.928;27.662;2023-02-19T12:20:51;97318.00;;;4.24;100.00
56912;BME280;42800;53.928;27.662;2023-02-19T12:23:45;97311.09;;;4.61;100.00
56912;BME280;42800;53.928;27.662;2023-02-19T12:26:21;97314.69;;;4.38;100.00
56912;BME280;42800;53.928;27.662;2023-02-19T12:29:20;97326.13;;;4.55;100.00
56912;BME280;42800;53.928;27.662;2023-02-19T12:32:14;97329.63;;;4.55;100.00
56912;BME280;42800;53.928;27.662;2023-02-19T12:35:21;97325.84;;;4.63;99.79
56912;BME280;42800;53.928;27.662;2023-02-19T12:38:01;97344.47;;;4.65;98.38
56912;BME280;42800;53.928;27.662;2023-02-19T12:40:42;97331.31;;;4.33;100.00
56912;BME280;42800;53.928;27.662;2023-02-19T12:43:14;97309.47;;;3.69;100.00
56912;BME280;42800;53.928;27.662;2023-02-19T12:45:45;97304.38;;;3.91;100.00
56912;BME280;42800;53.928;27.662;2023-02-19T12:48:18;97298.50;;;3.36;100.00
56912;BME280;42800;53.928;27.662;2023-02-19T12:50:50;97287.41;;;3.18;100.00
56912;BME280;42800;53.928;27.662;2023-02-19T12:53:30;97281.00;;;3.29;100.00
56912;BME280;42800;53.928;27.662;2023-02-19T12:55:58;97260.63;;;3.13;100.00
56912;BME280;42800;53.928;27.662;2023-02-19T12:58:34;97258.41;;;2.95;100.00
56912;BME280;42800;53.928;27.662;2023-02-19T13:01:05;97267.56;;;3.10;100.00
56912;BME280;42800;53.928;27.662;2023-02-19T13:03:38;97287.47;;;3.21;100.00
56912;BME280;42800;53.928;27.662;2023-02-19T13:06:10;97299.91;;;3.03;100.00
56912;BME280;42800;53.928;27.662;2023-02-19T13:08:45;97303.19;;;2.93;100.00
56912;BME280;42800;53.928;27.662;2023-02-19T13:11:16;97303.50;;;2.88;100.00
56912;BME280;42800;53.928;27.662;2023-02-19T13:13:47;97306.19;;;3.07;100.00
56912;BME280;42800;53.928;27.662;2023-02-19T13:16:17;97302.25;;;3.27;100.00